sensor_id;sensor_type;location;lat;lon;timestamp;pressure;altitude;pressure_sealevel;temperature;humidity
61537;BME280;48695;53.480;-6.300;2023-04-04T00:00:30;102041.03;;;10.57;55.34
61537;BME280;48695;53.480;-6.300;2023-04-04T00:02:56;102041.91;;;10.56;55.69
61537;BME280;48695;53.480;-6.300;2023-04-04T00:05:21;102047.13;;;10.53;55.73
61537;BME280;48695;53.480;-6.300;2023-04-04T00:07:47;102041.03;;;10.51;55.23
61537;BME280;48695;53.480;-6.300;2023-04-04T00:10:12;102043.66;;;10.50;55.65
61537;BME280;48695;53.480;-6.300;2023-04-04T00:12:38;102044.53;;;10.47;55.49
61537;BME280;48695;53.480;-6.300;2023-04-04T00:15:04;102044.53;;;10.47;55.41
61537;BME280;48695;53.480;-6.300;2023-04-04T00:17:29;102021.88;;;10.34;55.31
61537;BME280;48695;53.480;-6.300;2023-04-04T00:19:55;102044.53;;;10.47;55.47
61537;BME280;48695;53.480;-6.300;2023-04-04T00:22:21;102044.53;;;10.46;55.84
61537;BME280;48695;53.480;-6.300;2023-04-04T00:24:46;102034.94;;;10.48;55.43
61537;BME280;48695;53.480;-6.300;2023-04-04T00:27:13;102034.06;;;10.47;56.19
61537;BME280;48695;53.480;-6.300;2023-04-04T00:29:38;102032.34;;;10.49;56.01
61537;BME280;48695;53.480;-6.300;2023-04-04T00:32:04;102035.81;;;10.51;56.29
61537;BME280;48695;53.480;-6.300;2023-04-04T00:34:29;102023.63;;;10.53;56.30
61537;BME280;48695;53.480;-6.300;2023-04-04T00:36:55;102021.03;;;10.55;56.20
61537;BME280;48695;53.480;-6.300;2023-04-04T00:39:20;102024.50;;;10.57;56.49
61537;BME280;48695;53.480;-6.300;2023-04-04T00:41:48;102020.13;;;10.57;56.30
61537;BME280;48695;53.480;-6.300;2023-04-04T00:44:13;102024.50;;;10.60;56.75
61537;BME280;48695;53.480;-6.300;2023-04-04T00:46:39;102016.66;;;10.61;56.74
61537;BME280;48695;53.480;-6.300;2023-04-04T00:49:05;102019.25;;;10.63;56.88
61537;BME280;48695;53.480;-6.300;2023-04-04T00:51:30;102004.47;;;10.60;56.54
61537;BME280;48695;53.480;-6.300;2023-04-04T00:53:56;101996.63;;;10.53;56.37
61537;BME280;48695;53.480;-6.300;2023-04-04T00:56:23;102019.25;;;10.66;56.73
61537;BME280;48695;53.480;-6.300;2023-04-04T00:58:49;102014.91;;;10.67;56.45
61537;BME280;48695;53.480;-6.300;2023-04-04T01:01:15;102013.16;;;10.67;56.42
61537;BME280;48695;53.480;-6.300;2023-04-04T01:03:40;102002.69;;;10.67;56.90
61537;BME280;48695;53.480;-6.300;2023-04-04T01:06:07;102004.44;;;10.67;57.03
61537;BME280;48695;53.480;-6.300;2023-04-04T01:08:35;102002.69;;;10.69;55.97
61537;BME280;48695;53.480;-6.300;2023-04-04T01:11:01;101999.22;;;10.67;55.53
61537;BME280;48695;53.480;-6.300;2023-04-04T01:13:27;102007.94;;;10.65;55.89
61537;BME280;48695;53.480;-6.300;2023-04-04T01:15:53;102001.84;;;10.62;55.82
61537;BME280;48695;53.480;-6.300;2023-04-04T01:18:20;101998.34;;;10.63;55.67
61537;BME280;48695;53.480;-6.300;2023-04-04T01:20:56;102003.56;;;10.63;56.05
61537;BME280;48695;53.480;-6.300;2023-04-04T01:23:40;101994.88;;;10.61;56.13
61537;BME280;48695;53.480;-6.300;2023-04-04T01:26:07;101988.78;;;10.59;56.45
61537;BME280;48695;53.480;-6.300;2023-04-04T01:28:33;101993.16;;;10.57;56.84
61537;BME280;48695;53.480;-6.300;2023-04-04T01:31:00;101994.91;;;10.59;56.15
61537;BME280;48695;53.480;-6.300;2023-04-04T01:33:39;101992.28;;;10.59;56.09
61537;BME280;48695;53.480;-6.300;2023-04-04T01:36:19;101979.22;;;10.55;56.25
61537;BME280;48695;53.480;-6.300;2023-04-04T01:38:58;101985.28;;;10.58;56.12
61537;BME280;48695;53.480;-6.300;2023-04-04T01:41:31;101979.22;;;10.58;55.83
61537;BME280;48695;53.480;-6.300;2023-04-04T01:43:58;101974.88;;;10.55;55.56
61537;BME280;48695;53.480;-6.300;2023-04-04T01:46:23;101971.41;;;10.52;55.15
61537;BME280;48695;53.480;-6.300;2023-04-04T01:48:49;101974.03;;;10.50;55.47
61537;BME280;48695;53.480;-6.300;2023-04-04T01:51:14;101967.06;;;10.49;54.89
61537;BME280;48695;53.480;-6.300;2023-04-04T01:53:40;101972.25;;;10.48;55.33
61537;BME280;48695;53.480;-6.300;2023-04-04T01:56:05;101960.09;;;10.45;55.46
61537;BME280;48695;53.480;-6.300;2023-04-04T01:58:31;101959.22;;;10.43;54.98
61537;BME280;48695;53.480;-6.300;2023-04-04T02:00:56;101969.69;;;10.40;55.71
61537;BME280;48695;53.480;-6.300;2023-04-04T02:03:22;101956.59;;;10.38;55.69
61537;BME280;48695;53.480;-6.300;2023-04-04T02:05:47;101947.06;;;10.30;55.90
61537;BME280;48695;53.480;-6.300;2023-04-04T02:08:13;101969.69;;;10.40;56.14
61537;BME280;48695;53.480;-6.300;2023-04-04T02:10:39;101957.50;;;10.36;56.29
61537;BME280;48695;53.480;-6.300;2023-04-04T02:13:05;101957.47;;;10.39;56.25
61537;BME280;48695;53.480;-6.300;2023-04-04T02:15:32;101966.19;;;10.41;56.30
61537;BME280;48695;53.480;-6.300;2023-04-04T02:17:58;101944.44;;;10.31;55.89
61537;BME280;48695;53.480;-6.300;2023-04-04T02:20:24;101957.47;;;10.42;56.11
61537;BME280;48695;53.480;-6.300;2023-04-04T02:22:53;101953.13;;;10.41;56.29
61537;BME280;48695;53.480;-6.300;2023-04-04T02:25:23;101954.00;;;10.43;56.15
61537;BME280;48695;53.480;-6.300;2023-04-04T02:27:49;101957.47;;;10.42;56.91
61537;BME280;48695;53.480;-6.300;2023-04-04T02:30:15;101959.22;;;10.43;56.90
61537;BME280;48695;53.480;-6.300;2023-04-04T02:32:40;101954.00;;;10.43;56.96
61537;BME280;48695;53.480;-6.300;2023-04-04T02:35:07;101956.59;;;10.43;57.03
61537;BME280;48695;53.480;-6.300;2023-04-04T02:37:32;101941.84;;;10.36;57.14
61537;BME280;48695;53.480;-6.300;2023-04-04T02:39:58;101954.84;;;10.44;57.04
61537;BME280;48695;53.480;-6.300;2023-04-04T02:42:23;101907.03;;;10.12;57.15
61537;BME280;48695;53.480;-6.300;2023-04-04T02:44:49;101951.38;;;10.43;57.44
61537;BME280;48695;53.480;-6.300;2023-04-04T02:47:14;101952.28;;;10.36;57.02
61537;BME280;48695;53.480;-6.300;2023-04-04T02:49:40;101953.13;;;10.41;57.10
61537;BME280;48695;53.480;-6.300;2023-04-04T02:52:06;101948.78;;;10.37;57.66
61537;BME280;48695;53.480;-6.300;2023-04-04T02:54:32;101958.38;;;10.39;57.28
61537;BME280;48695;53.480;-6.300;2023-04-04T02:56:57;101866.16;;;9.87;57.27
61537;BME280;48695;53.480;-6.300;2023-04-04T02:59:23;101950.53;;;10.38;57.55
61537;BME280;48695;53.480;-6.300;2023-04-04T03:01:48;101954.00;;;10.37;57.18
61537;BME280;48695;53.480;-6.300;2023-04-04T03:04:14;101947.94;;;10.35;57.08
61537;BME280;48695;53.480;-6.300;2023-04-04T03:06:39;101951.41;;;10.32;56.86
61537;BME280;48695;53.480;-6.300;2023-04-04T03:09:05;101936.63;;;10.24;57.26
61537;BME280;48695;53.480;-6.300;2023-04-04T03:11:31;101944.44;;;10.24;56.93
61537;BME280;48695;53.480;-6.300;2023-04-04T03:13:56;101947.06;;;10.30;57.37
61537;BME280;48695;53.480;-6.300;2023-04-04T03:16:22;101941.84;;;10.28;57.25
61537;BME280;48695;53.480;-6.300;2023-04-04T03:18:47;101950.56;;;10.26;57.46
61537;BME280;48695;53.480;-6.300;2023-04-04T03:21:13;101931.38;;;10.18;57.51
61537;BME280;48695;53.480;-6.300;2023-04-04T03:23:39;101942.72;;;10.24;57.42
61537;BME280;48695;53.480;-6.300;2023-04-04T03:26:04;101938.31;;;10.23;57.80
61537;BME280;48695;53.480;-6.300;2023-04-04T03:28:30;101927.00;;;10.23;57.81
61537;BME280;48695;53.480;-6.300;2023-04-04T03:30:55;101929.63;;;10.23;57.98
61537;BME280;48695;53.480;-6.300;2023-04-04T03:33:21;101932.25;;;10.21;57.73
61537;BME280;48695;53.480;-6.300;2023-04-04T03:35:47;101926.16;;;10.18;58.26
61537;BME280;48695;53.480;-6.300;2023-04-04T03:38:13;101927.03;;;10.20;57.89
61537;BME280;48695;53.480;-6.300;2023-04-04T03:40:38;101924.41;;;10.17;58.19
61537;BME280;48695;53.480;-6.300;2023-04-04T03:43:07;101922.66;;;10.19;58.17
61537;BME280;48695;53.480;-6.300;2023-04-04T03:45:33;101907.91;;;10.07;58.03
61537;BME280;48695;53.480;-6.300;2023-04-04T03:48:00;101921.81;;;10.13;58.14
61537;BME280;48695;53.480;-6.300;2023-04-04T03:50:26;101912.25;;;10.12;58.19
61537;BME280;48695;53.480;-6.300;2023-04-04T03:52:51;101912.25;;;10.12;58.17
61537;BME280;48695;53.480;-6.300;2023-04-04T03:55:17;101910.50;;;10.11;58.44
61537;BME280;48695;53.480;-6.300;2023-04-04T03:57:43;101915.72;;;10.11;58.39
61537;BME280;48695;53.480;-6.300;2023-04-04T04:00:08;101909.66;;;10.11;58.78
61537;BME280;48695;53.480;-6.300;2023-04-04T04:02:34;101904.44;;;10.06;58.49
61537;BME280;48695;53.480;-6.300;2023-04-04T04:05:00;101900.09;;;10.05;58.88
61537;BME280;48695;53.480;-6.300;2023-04-04T04:07:25;101908.75;;;10.12;59.02
61537;BME280;48695;53.480;-6.300;2023-04-04T04:09:50;101905.28;;;10.11;58.80
61537;BME280;48695;53.480;-6.300;2023-04-04T04:12:16;101908.75;;;10.13;58.70
61537;BME280;48695;53.480;-6.300;2023-04-04T04:14:41;101910.53;;;10.14;58.68
61537;BME280;48695;53.480;-6.300;2023-04-04T04:17:06;101913.13;;;10.16;59.25
61537;BME280;48695;53.480;-6.300;2023-04-04T04:19:32;101910.50;;;10.18;59.24
61537;BME280;48695;53.480;-6.300;2023-04-04T04:21:57;101907.91;;;10.19;59.38
61537;BME280;48695;53.480;-6.300;2023-04-04T04:24:23;101891.38;;;10.11;59.02
61537;BME280;48695;53.480;-6.300;2023-04-04T04:26:48;101907.00;;;10.22;59.04
61537;BME280;48695;53.480;-6.300;2023-04-04T04:29:14;101889.63;;;10.21;58.84
61537;BME280;48695;53.480;-6.300;2023-04-04T04:31:40;101887.00;;;10.22;58.65
61537;BME280;48695;53.480;-6.300;2023-04-04T04:34:06;101878.28;;;10.23;58.71
61537;BME280;48695;53.480;-6.300;2023-04-04T04:36:33;101863.50;;;10.13;58.90
61537;BME280;48695;53.480;-6.300;2023-04-04T04:38:58;101875.72;;;10.25;58.65
61537;BME280;48695;53.480;-6.300;2023-04-04T04:41:24;101867.00;;;10.20;58.71
61537;BME280;48695;53.480;-6.300;2023-04-04T04:43:50;101867.88;;;10.26;58.80
61537;BME280;48695;53.480;-6.300;2023-04-04T04:46:16;101864.41;;;10.24;59.03
61537;BME280;48695;53.480;-6.300;2023-04-04T04:48:42;101877.44;;;10.29;58.89
61537;BME280;48695;53.480;-6.300;2023-04-04T04:51:07;101869.59;;;10.27;58.89
61537;BME280;48695;53.480;-6.300;2023-04-04T04:53:33;101853.06;;;10.24;58.61
61537;BME280;48695;53.480;-6.300;2023-04-04T04:55:58;101875.69;;;10.35;58.74
61537;BME280;48695;53.480;-6.300;2023-04-04T04:58:24;101874.81;;;10.36;58.50
61537;BME280;48695;53.480;-6.300;2023-04-04T05:00:53;101870.47;;;10.40;58.75
61537;BME280;48695;53.480;-6.300;2023-04-04T05:03:20;101873.91;;;10.39;58.66
61537;BME280;48695;53.480;-6.300;2023-04-04T05:05:46;101878.28;;;10.40;58.60
61537;BME280;48695;53.480;-6.300;2023-04-04T05:08:11;101881.78;;;10.41;58.68
61537;BME280;48695;53.480;-6.300;2023-04-04T05:10:37;101878.28;;;10.42;58.58
61537;BME280;48695;53.480;-6.300;2023-04-04T05:13:02;101881.75;;;10.44;58.89
61537;BME280;48695;53.480;-6.300;2023-04-04T05:15:28;101875.66;;;10.43;59.38
61537;BME280;48695;53.480;-6.300;2023-04-04T05:17:53;101863.47;;;10.39;59.18
61537;BME280;48695;53.480;-6.300;2023-04-04T05:20:19;101873.91;;;10.45;59.46
61537;BME280;48695;53.480;-6.300;2023-04-04T05:22:45;101864.34;;;10.44;59.39
61537;BME280;48695;53.480;-6.300;2023-04-04T05:25:11;101863.47;;;10.45;59.37
61537;BME280;48695;53.480;-6.300;2023-04-04T05:27:37;101868.69;;;10.47;59.60
61537;BME280;48695;53.480;-6.300;2023-04-04T05:30:03;101866.97;;;10.44;59.18
61537;BME280;48695;53.480;-6.300;2023-04-04T05:32:28;101858.25;;;10.45;59.02
61537;BME280;48695;53.480;-6.300;2023-04-04T05:34:53;101858.25;;;10.45;59.27
61537;BME280;48695;53.480;-6.300;2023-04-04T05:37:19;101862.63;;;10.45;59.46
61537;BME280;48695;53.480;-6.300;2023-04-04T05:39:45;101852.19;;;10.40;59.34
61537;BME280;48695;53.480;-6.300;2023-04-04T05:42:11;101861.72;;;10.47;59.29
61537;BME280;48695;53.480;-6.300;2023-04-04T05:44:37;101863.47;;;10.47;58.76
61537;BME280;48695;53.480;-6.300;2023-04-04T05:47:02;101872.16;;;10.47;59.17
61537;BME280;48695;53.480;-6.300;2023-04-04T05:49:27;101870.44;;;10.46;58.35
61537;BME280;48695;53.480;-6.300;2023-04-04T05:51:53;101873.88;;;10.48;58.61
61537;BME280;48695;53.480;-6.300;2023-04-04T05:54:20;101883.47;;;10.51;57.68
61537;BME280;48695;53.480;-6.300;2023-04-04T05:56:46;101876.53;;;10.50;58.97
61537;BME280;48695;53.480;-6.300;2023-04-04T05:59:12;101877.38;;;10.47;59.02
61537;BME280;48695;53.480;-6.300;2023-04-04T06:01:37;101873.03;;;10.49;58.75
61537;BME280;48695;53.480;-6.300;2023-04-04T06:04:02;101881.75;;;10.47;58.93
61537;BME280;48695;53.480;-6.300;2023-04-04T06:06:28;101861.75;;;10.36;59.13
61537;BME280;48695;53.480;-6.300;2023-04-04T06:08:53;101877.41;;;10.44;59.02
61537;BME280;48695;53.480;-6.300;2023-04-04T06:11:19;101869.56;;;10.41;59.48
61537;BME280;48695;53.480;-6.300;2023-04-04T06:13:46;101895.66;;;10.52;59.49
61537;BME280;48695;53.480;-6.300;2023-04-04T06:16:12;101894.78;;;10.54;59.43
61537;BME280;48695;53.480;-6.300;2023-04-04T06:18:37;101885.19;;;10.56;59.84
61537;BME280;48695;53.480;-6.300;2023-04-04T06:21:02;101888.66;;;10.58;59.71
61537;BME280;48695;53.480;-6.300;2023-04-04T06:23:28;101837.41;;;10.30;60.04
61537;BME280;48695;53.480;-6.300;2023-04-04T06:25:53;101894.72;;;10.63;60.09
61537;BME280;48695;53.480;-6.300;2023-04-04T06:28:19;101889.50;;;10.67;59.75
61537;BME280;48695;53.480;-6.300;2023-04-04T06:30:44;101887.75;;;10.69;59.65
61537;BME280;48695;53.480;-6.300;2023-04-04T06:33:09;101888.63;;;10.71;60.02
61537;BME280;48695;53.480;-6.300;2023-04-04T06:35:35;101884.28;;;10.65;59.84
61537;BME280;48695;53.480;-6.300;2023-04-04T06:38:01;101899.03;;;10.74;59.57
61537;BME280;48695;53.480;-6.300;2023-04-04T06:40:28;101899.06;;;10.75;59.66
61537;BME280;48695;53.480;-6.300;2023-04-04T06:42:54;101900.78;;;10.76;59.92
61537;BME280;48695;53.480;-6.300;2023-04-04T06:45:25;101867.78;;;10.57;60.04
61537;BME280;48695;53.480;-6.300;2023-04-04T06:47:52;101898.16;;;10.81;59.88
61537;BME280;48695;53.480;-6.300;2023-04-04T06:50:18;101872.06;;;10.72;59.80
61537;BME280;48695;53.480;-6.300;2023-04-04T06:52:44;101898.13;;;10.84;59.83
61537;BME280;48695;53.480;-6.300;2023-04-04T06:55:10;101849.47;;;10.58;59.87
61537;BME280;48695;53.480;-6.300;2023-04-04T06:57:35;101898.13;;;10.87;60.11
61537;BME280;48695;53.480;-6.300;2023-04-04T07:00:03;101898.13;;;10.87;60.51
61537;BME280;48695;53.480;-6.300;2023-04-04T07:02:28;101890.31;;;10.82;60.27
61537;BME280;48695;53.480;-6.300;2023-04-04T07:04:54;101894.66;;;10.85;60.50
61537;BME280;48695;53.480;-6.300;2023-04-04T07:07:19;101898.13;;;10.84;60.44
61537;BME280;48695;53.480;-6.300;2023-04-04T07:09:45;101898.13;;;10.84;60.52
61537;BME280;48695;53.480;-6.300;2023-04-04T07:12:10;101882.44;;;10.84;60.70
61537;BME280;48695;53.480;-6.300;2023-04-04T07:14:36;101890.28;;;10.84;60.79
61537;BME280;48695;53.480;-6.300;2023-04-04T07:17:01;101883.31;;;10.86;60.60
61537;BME280;48695;53.480;-6.300;2023-04-04T07:19:27;101876.34;;;10.86;60.94
61537;BME280;48695;53.480;-6.300;2023-04-04T07:21:53;101880.69;;;10.90;60.36
61537;BME280;48695;53.480;-6.300;2023-04-04T07:24:19;101878.09;;;10.90;60.73
61537;BME280;48695;53.480;-6.300;2023-04-04T07:26:45;101887.63;;;10.96;60.42
61537;BME280;48695;53.480;-6.300;2023-04-04T07:29:10;101884.13;;;10.99;60.93
61537;BME280;48695;53.480;-6.300;2023-04-04T07:31:36;101878.88;;;11.02;60.64
61537;BME280;48695;53.480;-6.300;2023-04-04T07:34:01;101815.47;;;10.68;60.71
61537;BME280;48695;53.480;-6.300;2023-04-04T07:36:27;101876.22;;;11.09;60.76
61537;BME280;48695;53.480;-6.300;2023-04-04T07:38:53;101882.28;;;11.14;60.77
61537;BME280;48695;53.480;-6.300;2023-04-04T07:41:18;101877.03;;;11.21;60.80
61537;BME280;48695;53.480;-6.300;2023-04-04T07:43:45;101875.25;;;11.26;60.62
61537;BME280;48695;53.480;-6.300;2023-04-04T07:46:11;101870.84;;;11.32;60.69
61537;BME280;48695;53.480;-6.300;2023-04-04T07:48:37;101872.56;;;11.36;60.48
61537;BME280;48695;53.480;-6.300;2023-04-04T07:51:02;101857.75;;;11.37;60.42
61537;BME280;48695;53.480;-6.300;2023-04-04T07:53:31;101857.63;;;11.49;60.91
61537;BME280;48695;53.480;-6.300;2023-04-04T07:55:57;101849.72;;;11.55;60.62
61537;BME280;48695;53.480;-6.300;2023-04-04T07:58:22;101850.56;;;11.60;60.47
61537;BME280;48695;53.480;-6.300;2023-04-04T08:00:48;101857.50;;;11.67;60.22
61537;BME280;48695;53.480;-6.300;2023-04-04T08:03:13;101855.69;;;11.73;59.91
61537;BME280;48695;53.480;-6.300;2023-04-04T08:05:40;101846.03;;;11.79;59.83
61537;BME280;48695;53.480;-6.300;2023-04-04T08:08:05;101845.19;;;11.82;59.32
61537;BME280;48695;53.480;-6.300;2023-04-04T08:10:31;101845.16;;;11.79;59.27
61537;BME280;48695;53.480;-6.300;2023-04-04T08:12:56;101853.88;;;11.87;59.38
61537;BME280;48695;53.480;-6.300;2023-04-04T08:15:22;101845.13;;;11.88;59.23
61537;BME280;48695;53.480;-6.300;2023-04-04T08:17:47;101839.03;;;11.87;59.67
61537;BME280;48695;53.480;-6.300;2023-04-04T08:20:14;101838.97;;;11.90;59.48
61537;BME280;48695;53.480;-6.300;2023-04-04T08:22:41;101785.16;;;11.62;59.25
61537;BME280;48695;53.480;-6.300;2023-04-04T08:25:07;101834.56;;;11.97;59.33
61537;BME280;48695;53.480;-6.300;2023-04-04T08:27:33;101839.72;;;12.03;59.05
61537;BME280;48695;53.480;-6.300;2023-04-04T08:29:59;101843.16;;;12.08;58.98
61537;BME280;48695;53.480;-6.300;2023-04-04T08:32:24;101835.25;;;12.14;59.37
61537;BME280;48695;53.480;-6.300;2023-04-04T08:34:50;101828.22;;;12.18;58.86
61537;BME280;48695;53.480;-6.300;2023-04-04T08:37:16;101831.69;;;12.22;58.93
61537;BME280;48695;53.480;-6.300;2023-04-04T08:39:41;101826.41;;;12.25;59.43
61537;BME280;48695;53.480;-6.300;2023-04-04T08:42:07;101822.84;;;12.30;59.03
61537;BME280;48695;53.480;-6.300;2023-04-04T08:44:34;101829.75;;;12.37;58.55
61537;BME280;48695;53.480;-6.300;2023-04-04T08:47:03;101833.13;;;12.47;58.55
61537;BME280;48695;53.480;-6.300;2023-04-04T08:49:33;101833.00;;;12.58;58.28
61537;BME280;48695;53.480;-6.300;2023-04-04T08:52:01;101830.25;;;12.65;58.70
61537;BME280;48695;53.480;-6.300;2023-04-04T08:54:27;101821.41;;;12.74;58.66
61537;BME280;48695;53.480;-6.300;2023-04-04T08:56:54;101822.09;;;12.87;57.95
61537;BME280;48695;53.480;-6.300;2023-04-04T08:59:20;101801.97;;;12.89;57.88
61537;BME280;48695;53.480;-6.300;2023-04-04T09:01:46;101821.81;;;13.08;57.55
61537;BME280;48695;53.480;-6.300;2023-04-04T09:04:12;101798.22;;;13.05;57.44
61537;BME280;48695;53.480;-6.300;2023-04-04T09:06:37;101790.25;;;13.11;57.05
61537;BME280;48695;53.480;-6.300;2023-04-04T09:09:05;101803.16;;;13.27;56.89
61537;BME280;48695;53.480;-6.300;2023-04-04T09:11:32;101813.63;;;13.30;56.07
61537;BME280;48695;53.480;-6.300;2023-04-04T09:13:59;101809.16;;;13.35;56.05
61537;BME280;48695;53.480;-6.300;2023-04-04T09:16:26;101810.06;;;13.34;56.62
61537;BME280;48695;53.480;-6.300;2023-04-04T09:18:52;101820.44;;;13.40;55.96
61537;BME280;48695;53.480;-6.300;2023-04-04T09:21:18;101820.38;;;13.43;56.02
61537;BME280;48695;53.480;-6.300;2023-04-04T09:23:43;101829.00;;;13.51;55.85
61537;BME280;48695;53.480;-6.300;2023-04-04T09:26:09;101823.72;;;13.54;56.09
61537;BME280;48695;53.480;-6.300;2023-04-04T09:28:35;101817.44;;;13.61;55.23
61537;BME280;48695;53.480;-6.300;2023-04-04T09:31:02;101817.34;;;13.69;55.43
61537;BME280;48695;53.480;-6.300;2023-04-04T09:33:30;101811.03;;;13.77;54.97
61537;BME280;48695;53.480;-6.300;2023-04-04T09:36:16;101814.31;;;13.90;56.22
61537;BME280;48695;53.480;-6.300;2023-04-04T09:38:42;101796.91;;;13.85;55.37
61537;BME280;48695;53.480;-6.300;2023-04-04T09:41:08;101808.97;;;13.95;55.12
61537;BME280;48695;53.480;-6.300;2023-04-04T09:43:35;101805.19;;;14.08;54.66
61537;BME280;48695;53.480;-6.300;2023-04-04T09:46:02;101813.84;;;14.15;54.70
61537;BME280;48695;53.480;-6.300;2023-04-04T09:48:32;101804.84;;;14.26;54.82
61537;BME280;48695;53.480;-6.300;2023-04-04T09:50:58;101800.38;;;14.32;53.89
61537;BME280;48695;53.480;-6.300;2023-04-04T09:53:24;101806.34;;;14.40;53.79
61537;BME280;48695;53.480;-6.300;2023-04-04T09:55:51;101804.44;;;14.48;54.01
61537;BME280;48695;53.480;-6.300;2023-04-04T09:58:19;101800.66;;;14.60;53.20
61537;BME280;48695;53.480;-6.300;2023-04-04T10:00:48;101777.91;;;14.60;52.80
61537;BME280;48695;53.480;-6.300;2023-04-04T10:03:17;101789.78;;;14.76;52.47
61537;BME280;48695;53.480;-6.300;2023-04-04T10:05:46;101794.84;;;14.86;52.38
61537;BME280;48695;53.480;-6.300;2023-04-04T10:08:20;101781.44;;;14.95;53.00
61537;BME280;48695;53.480;-6.300;2023-04-04T10:10:50;101742.66;;;14.67;52.09
61537;BME280;48695;53.480;-6.300;2023-04-04T10:13:25;101790.84;;;15.07;52.63
61537;BME280;48695;53.480;-6.300;2023-04-04T10:15:56;101789.88;;;15.09;51.58
61537;BME280;48695;53.480;-6.300;2023-04-04T10:18:29;101803.53;;;15.25;52.55
61537;BME280;48695;53.480;-6.300;2023-04-04T10:20:55;101804.34;;;15.28;51.73
61537;BME280;48695;53.480;-6.300;2023-04-04T10:23:22;101810.22;;;15.38;51.58
61537;BME280;48695;53.480;-6.300;2023-04-04T10:25:51;101796.97;;;15.43;51.15
61537;BME280;48695;53.480;-6.300;2023-04-04T10:28:17;101789.88;;;15.45;50.90
61537;BME280;48695;53.480;-6.300;2023-04-04T10:33:21;101798.53;;;15.50;51.03
61537;BME280;48695;53.480;-6.300;2023-04-04T10:35:50;101805.50;;;15.51;50.87
61537;BME280;48695;53.480;-6.300;2023-04-04T10:38:20;101805.44;;;15.54;50.80
61537;BME280;48695;53.480;-6.300;2023-04-04T10:40:49;101782.81;;;15.47;50.28
61537;BME280;48695;53.480;-6.300;2023-04-04T10:43:17;101797.34;;;15.63;49.97
61537;BME280;48695;53.480;-6.300;2023-04-04T10:45:45;101791.09;;;15.67;49.81
61537;BME280;48695;53.480;-6.300;2023-04-04T10:48:11;101789.28;;;15.69;50.35
61537;BME280;48695;53.480;-6.300;2023-04-04T10:50:37;101797.84;;;15.77;50.14
61537;BME280;48695;53.480;-6.300;2023-04-04T10:53:03;101792.47;;;15.80;49.63
61537;BME280;48695;53.480;-6.300;2023-04-04T10:55:31;101789.72;;;15.85;50.45
61537;BME280;48695;53.480;-6.300;2023-04-04T10:57:57;101756.88;;;15.66;50.46
61537;BME280;48695;53.480;-6.300;2023-04-04T11:00:23;101788.38;;;16.01;49.68
61537;BME280;48695;53.480;-6.300;2023-04-04T11:05:18;101778.94;;;16.25;48.65
61537;BME280;48695;53.480;-6.300;2023-04-04T11:07:45;101690.59;;;15.82;48.04
61537;BME280;48695;53.480;-6.300;2023-04-04T11:10:15;101783.75;;;16.41;48.98
61537;BME280;48695;53.480;-6.300;2023-04-04T11:12:43;101767.13;;;16.39;48.47
61537;BME280;48695;53.480;-6.300;2023-04-04T11:15:13;101763.63;;;16.38;47.01
61537;BME280;48695;53.480;-6.300;2023-04-04T11:20:34;101748.88;;;16.32;48.76
61537;BME280;48695;53.480;-6.300;2023-04-04T11:23:04;101755.22;;;16.25;47.51
61537;BME280;48695;53.480;-6.300;2023-04-04T11:25:31;101747.50;;;16.19;46.92
61537;BME280;48695;53.480;-6.300;2023-04-04T11:27:57;101747.56;;;16.16;47.23
61537;BME280;48695;53.480;-6.300;2023-04-04T11:30:23;101744.06;;;16.17;47.50
61537;BME280;48695;53.480;-6.300;2023-04-04T11:32:50;101743.09;;;16.20;47.71
61537;BME280;48695;53.480;-6.300;2023-04-04T11:35:16;101742.22;;;16.19;47.41
61537;BME280;48695;53.480;-6.300;2023-04-04T11:40:16;101721.22;;;16.16;47.08
61537;BME280;48695;53.480;-6.300;2023-04-04T11:42:42;101733.44;;;16.19;47.76
61537;BME280;48695;53.480;-6.300;2023-04-04T11:45:08;101737.72;;;16.23;48.10
61537;BME280;48695;53.480;-6.300;2023-04-04T11:47:34;101733.25;;;16.25;47.63
61537;BME280;48695;53.480;-6.300;2023-04-04T11:50:02;101708.88;;;16.18;47.32
61537;BME280;48695;53.480;-6.300;2023-04-04T11:52:32;101723.38;;;16.31;47.48
61537;BME280;48695;53.480;-6.300;2023-04-04T11:55:18;101730.75;;;16.50;48.76
61537;BME280;48695;53.480;-6.300;2023-04-04T11:57:47;101719.56;;;16.71;48.23
61537;BME280;48695;53.480;-6.300;2023-04-04T12:00:32;101716.94;;;16.98;49.07
61537;BME280;48695;53.480;-6.300;2023-04-04T12:03:06;101705.53;;;17.22;47.84
61537;BME280;48695;53.480;-6.300;2023-04-04T12:05:35;101710.69;;;17.52;47.58
61537;BME280;48695;53.480;-6.300;2023-04-04T12:08:02;101708.25;;;17.96;47.31
61537;BME280;48695;53.480;-6.300;2023-04-04T12:10:38;101697.78;;;18.60;51.09
61537;BME280;48695;53.480;-6.300;2023-04-04T12:13:08;101682.03;;;19.01;46.10
61537;BME280;48695;53.480;-6.300;2023-04-04T12:15:34;101693.63;;;19.39;44.06
61537;BME280;48695;53.480;-6.300;2023-04-04T12:18:00;101688.72;;;19.70;42.81
61537;BME280;48695;53.480;-6.300;2023-04-04T12:20:26;101689.28;;;19.98;43.68
61537;BME280;48695;53.480;-6.300;2023-04-04T12:22:52;101685.44;;;20.22;43.33
61537;BME280;48695;53.480;-6.300;2023-04-04T12:25:19;101673.75;;;20.45;41.63
61537;BME280;48695;53.480;-6.300;2023-04-04T12:27:46;101682.25;;;20.70;39.87
61537;BME280;48695;53.480;-6.300;2023-04-04T12:30:13;101674.53;;;20.83;39.19
61537;BME280;48695;53.480;-6.300;2023-04-04T12:32:44;101667.38;;;20.85;39.19
61537;BME280;48695;53.480;-6.300;2023-04-04T12:35:10;101652.84;;;20.75;38.35
61537;BME280;48695;53.480;-6.300;2023-04-04T12:38:02;101658.00;;;20.95;43.03
61537;BME280;48695;53.480;-6.300;2023-04-04T12:40:31;101656.72;;;21.03;40.84
61537;BME280;48695;53.480;-6.300;2023-04-04T12:42:58;101625.41;;;20.92;39.26
61537;BME280;48695;53.480;-6.300;2023-04-04T12:45:25;101654.09;;;21.37;39.63
61537;BME280;48695;53.480;-6.300;2023-04-04T12:47:55;101640.44;;;21.61;39.94